Aspen-Pitkin Co/Sardy Field
KASE : now visible

Airfield :











YOU CAN JOIN US ON...

 
LOGIN :

Register | Disclaimer

   EN    FR    IT 

 









Legend :    VFR   Marginal VFR   IFR   Intensive IFR   Very Intensive IFR
Visi :
Ceiling :
>= 8 km
>= 3000ft
5 to 8 km
1000 to 3000 ft
1500m to 5 km
500 to 1000 ft
800 to 1500m
200 to 500 ft
< 800m
< 200 ft
Symbols :   Thunderstorms  Fog  Heavy snow  Heavy precipitations  Wind > 20 kt







- Airport Elevation : 7820 ft


KASE - Aspen-Pitkin Co/Sardy Field

CURRENT METAR :
  • 162153Z COR VRB05G12KT 10SM SCT100 22/03 A3016 RMK AO2 SLP088 T02170033

EXPIRED METARs :
  • 162053Z VRB03KT 10SM FEW065 22/04 A3018 RMK AO2 SLP094 T02220039 56018
  • 161953Z VRB03KT 10SM FEW060 21/04 A3020 RMK AO2 SLP105 T02060044

TAF KASE
Valid from the 16 at 18:00 until the 17 at 18:00 UTC


161730Z 1618/1718 36004KT P6SM VCSH OVC070
FM161930 27005KT P6SM FEW070 SCT090
FM170500 19005KT P6SM SCT070 BKN100
FM170900 18005KT P6SM VCTS FEW060CB SCT090
FM171400 22005KT P6SM FEW050 SCT080
No reported NOTAMs for that airfield.



MET'MAP, your aeronautical weather chart ! - Copyright ORBIFLY December 2007 - Disclaimer

ORBIFLY MET'MAP TEAM :

Programming & Development : Alexandra Zaïnal
Concept & Development : Baudouin d'Aumeries
Co-Development & Prog : Marc-Olivier Méhu
Technical & hardware support : Manuel Goepfert

Contact : metmap@orbifly.com




SOURCES & CREDITS :

   NOAA       Earth
Advisory